Time;durP1;ratioP1;P1;durP2;ratioP2;P2;SDS_P1;SDS_P2;PMS_P1;PMS_P2;Temp;Humidity;BMP_temperature;BMP_pressure;BME280_temperature;BME280_humidity;BME280_pressure;Samples;Min_cycle;Max_cycle;Signal;HPM_P1;HPM_P2
2021/04/12 00:01:34;;;;;;;3.58;0.75;;;;;;;3.30;92.51;102250.94;10366561;28;20055;-79
2021/04/12 00:06:42;;;;;;;3.10;0.70;;;;;;;3.49;93.44;102293.06;10389168;28;20049;-78
2021/04/12 00:12:04;;;;;;;3.97;0.98;;;;;;;3.47;93.61;102295.22;10386518;28;20033;-77
2021/04/12 00:17:12;;;;;;;;;;;;;;;3.52;93.41;102300.53;10386505;28;20100;-78
2021/04/12 00:22:32;;;;;;;3.42;0.77;;;;;;;3.44;93.55;102293.09;10386652;28;20325;-79
2021/04/12 00:27:58;;;;;;;3.88;0.98;;;;;;;3.28;93.92;102295.84;10390608;28;20049;-78
2021/04/12 00:33:06;;;;;;;5.60;0.93;;;;;;;3.19;95.09;102302.81;10389134;28;20049;-78
2021/04/12 00:38:30;;;;;;;1.38;0.85;;;;;;;3.07;96.32;102286.31;10381380;28;20072;-78
2021/04/12 00:43:54;;;;;;;3.22;0.90;;;;;;;3.10;95.80;102304.44;10398807;28;20123;-78
2021/04/12 00:49:25;;;;;;;5.70;0.82;;;;;;;3.05;96.18;102323.16;10398650;28;20029;-79
2021/04/12 00:54:53;;;;;;;2.92;0.77;;;;;;;2.61;96.66;102265.03;10397100;28;20029;-78
2021/04/12 01:00:04;;;;;;;3.38;1.02;;;;;;;2.95;97.23;102330.13;10381658;28;20431;-79
2021/04/12 01:05:23;;;;;;;4.17;1.17;;;;;;;2.91;97.85;102323.72;10392266;28;20240;-79
2021/04/12 01:10:32;;;;;;;2.35;1.10;;;;;;;1.61;97.81;102163.19;10395655;28;20046;-77
2021/04/12 01:15:48;;;;;;;3.97;1.10;;;;;;;2.67;99.04;102322.72;10395542;28;20902;-80
2021/04/12 01:21:13;;;;;;;8.30;1.50;;;;;;;2.58;100.00;102335.78;10398616;28;20040;-79
2021/04/12 01:26:45;;;;;;;4.53;1.00;;;;;;;2.54;100.00;102340.88;10405751;28;20173;-77
2021/04/12 01:32:06;;;;;;;6.65;1.52;;;;;;;2.59;100.00;102342.75;10397934;28;20032;-78
2021/04/12 01:37:23;;;;;;;3.35;1.10;;;;;;;2.49;100.00;102316.88;10397538;28;20050;-78
2021/04/12 01:42:36;;;;;;;2.95;1.30;;;;;;;2.92;100.00;102362.75;10396863;28;20894;-76
2021/04/12 01:47:50;;;;;;;3.88;2.40;;;;;;;2.93;100.00;102364.31;10395568;28;20121;-75
2021/04/12 01:53:08;;;;;;;5.93;1.35;;;;;;;2.97;100.00;102360.06;10395958;28;20394;-75
2021/04/12 01:58:30;;;;;;;3.15;1.30;;;;;;;2.96;100.00;102369.16;10390002;28;20045;-76
2021/04/12 02:03:42;;;;;;;2.83;0.95;;;;;;;2.88;100.00;102350.97;10395082;28;20128;-75
2021/04/12 02:09:04;;;;;;;2.70;0.70;;;;;;;3.09;100.00;102377.69;10392356;28;20123;-76
2021/04/12 02:14:38;;;;;;;4.78;1.05;;;;;;;3.08;100.00;102382.22;10393975;28;20479;-77
2021/04/12 02:19:39;;;;;;;2.85;0.80;;;;;;;3.06;100.00;102364.88;10391868;28;20418;-75
2021/04/12 02:24:58;;;;;;;1.23;0.70;;;;;;;2.53;100.00;102312.56;10391136;28;20037;-76
2021/04/12 02:30:15;;;;;;;3.88;0.80;;;;;;;2.46;100.00;102322.72;10394209;28;20041;-75
2021/04/12 02:35:39;;;;;;;2.28;0.85;;;;;;;2.64;100.00;102387.34;10391955;28;20040;-76
2021/04/12 02:40:58;;;;;;;3.33;0.80;;;;;;;2.66;100.00;102402.03;10392573;28;20041;-76
2021/04/12 02:46:37;;;;;;;3.28;0.88;;;;;;;2.76;100.00;102401.22;10394073;28;20030;-75
2021/04/12 02:51:46;;;;;;;2.88;0.80;;;;;;;2.86;100.00;102400.41;10368199;28;20047;-77
2021/04/12 02:56:53;;;;;;;2.38;0.70;;;;;;;2.96;97.78;102406.56;10395663;28;20044;-76
2021/04/12 03:02:12;;;;;;;1.40;0.38;;;;;;;3.16;91.71;102394.22;10391444;28;20127;-75
2021/04/12 03:07:37;;;;;;;2.53;0.60;;;;;;;3.31;93.26;102396.84;10379812;28;20152;-76
2021/04/12 03:12:49;;;;;;;1.83;0.52;;;;;;;3.32;92.00;102398.47;10353938;28;20068;-76
2021/04/12 03:18:27;;;;;;;5.77;0.53;;;;;;;3.31;91.64;102396.84;10349349;28;20549;-76
2021/04/12 03:23:35;;;;;;;4.05;0.70;;;;;;;2.84;93.05;102344.56;10354148;28;20293;-77
2021/04/12 03:29:07;;;;;;;2.95;0.60;;;;;;;3.13;93.20;102400.13;10351018;28;20033;-78
2021/04/12 03:34:20;;;;;;;1.33;0.50;;;;;;;3.16;93.51;102415.59;10311658;28;20056;-77
2021/04/12 03:39:26;;;;;;;6.90;0.95;;;;;;;3.00;95.78;102384.63;10352699;28;20386;-77
2021/04/12 03:45:04;;;;;;;5.13;0.85;;;;;;;3.11;96.14;102418.28;10351462;28;20038;-76
2021/04/12 03:50:32;;;;;;;2.30;0.70;;;;;;;3.15;98.14;102424.66;10353323;28;20121;-78
2021/04/12 03:56:00;;;;;;;3.20;0.90;;;;;;;2.76;98.60;102358.47;10359300;28;20084;-77
2021/04/12 04:01:08;;;;;;;5.18;1.17;;;;;;;3.17;98.46;102434.03;10354770;28;20038;-76
2021/04/12 04:06:17;;;;;;;3.55;1.00;;;;;;;3.08;99.73;102430.31;10346057;28;20134;-75
2021/04/12 04:11:24;;;;;;;3.38;0.93;;;;;;;3.04;100.00;102417.75;10395792;28;20510;-77
2021/04/12 04:16:39;;;;;;;6.78;1.15;;;;;;;3.07;100.00;102433.25;10401244;28;20030;-76
2021/04/12 04:22:17;;;;;;;13.82;1.60;;;;;;;3.05;100.00;102446.06;10401550;28;20037;-76
2021/04/12 04:28:14;;;;;;;10.07;1.17;;;;;;;3.02;100.00;102438.59;10400814;28;20037;-77
2021/04/12 04:33:25;;;;;;;6.43;1.80;;;;;;;3.09;100.00;102447.13;10382822;28;20072;-76
2021/04/12 04:38:59;;;;;;;2.70;0.90;;;;;;;2.79;100.00;102395.31;10399192;28;20038;-77
2021/04/12 04:44:38;;;;;;;2.50;1.00;;;;;;;2.88;100.00;102415.09;10401211;28;20437;-78
2021/04/12 04:49:58;;;;;;;5.93;1.02;;;;;;;2.87;100.00;102413.50;10368671;28;20033;-77
2021/04/12 04:55:06;;;;;;;4.78;1.20;;;;;;;2.59;100.00;102379.31;10400769;28;20033;-77
2021/04/12 05:00:19;;;;;;;5.75;1.00;;;;;;;3.38;98.19;102493.59;10398395;28;20389;-79
2021/04/12 05:06:01;;;;;;;2.70;1.08;;;;;;;3.41;96.20;102502.16;10403128;28;20099;-87
2021/04/12 05:11:23;;;;;;;6.53;1.70;;;;;;;3.19;95.12;102508.59;10347074;28;20106;-79
2021/04/12 05:17:03;;;;;;;3.53;1.38;;;;;;;3.11;95.20;102519.81;10401467;28;20034;-84
2021/04/12 05:22:18;;;;;;;4.45;0.90;;;;;;;3.06;96.99;102522.50;10399535;28;20085;-85
2021/04/12 05:27:50;;;;;;;4.88;1.65;;;;;;;3.00;98.20;102510.19;10391942;28;20052;-83
2021/04/12 05:33:15;;;;;;;5.25;0.85;;;;;;;2.94;97.51;102515.53;10399538;28;21182;-79
2021/04/12 05:38:41;;;;;;;7.25;1.08;;;;;;;2.95;98.00;102505.66;10400454;28;20064;-79
2021/04/12 05:44:16;;;;;;;5.00;1.05;;;;;;;2.86;98.60;102521.38;10386761;28;20433;-78
2021/04/12 05:49:29;;;;;;;6.00;1.10;;;;;;;2.78;100.00;102521.94;10389640;28;20446;-81
2021/04/12 05:54:54;;;;;;;5.75;1.30;;;;;;;2.93;100.00;102529.94;10390081;28;20443;-80
2021/04/12 06:00:21;;;;;;;7.63;1.60;;;;;;;2.25;100.00;102401.16;10388376;28;20078;-80
2021/04/12 06:05:24;;;;;;;3.20;1.23;;;;;;;3.26;100.00;102559.91;10385170;28;20676;-81
2021/04/12 06:10:38;;;;;;;3.55;0.95;;;;;;;3.20;99.66;102560.97;10382303;28;20391;-80
2021/04/12 06:15:42;;;;;;;2.85;1.08;;;;;;;3.25;99.99;102569.00;10407060;28;20037;-80
2021/04/12 06:21:00;;;;;;;5.47;1.15;;;;;;;3.24;100.00;102572.72;10398219;28;20041;-79
2021/04/12 06:26:25;;;;;;;2.78;1.10;;;;;;;3.30;100.00;102590.38;10396079;28;20038;-80
2021/04/12 06:31:37;;;;;;;8.60;1.73;;;;;;;3.38;100.00;102589.84;10397723;28;20045;-81
2021/04/12 06:36:48;;;;;;;3.78;1.55;;;;;;;3.45;100.00;102594.13;10387767;28;20045;-81
2021/04/12 06:41:54;;;;;;;6.75;1.30;;;;;;;3.48;100.00;102604.28;10376649;28;20040;-80
2021/04/12 06:46:57;;;;;;;9.15;1.60;;;;;;;3.43;100.00;102617.66;10390532;28;20087;-79
2021/04/12 06:52:16;;;;;;;4.00;1.45;;;;;;;3.38;100.00;102613.88;10389497;28;20481;-79
2021/04/12 06:57:38;;;;;;;6.65;2.10;;;;;;;3.30;100.00;102614.44;10386675;28;20034;-79
2021/04/12 07:03:03;;;;;;;5.17;1.70;;;;;;;3.53;100.00;102612.31;10393974;28;20105;-81
2021/04/12 07:08:19;;;;;;;7.07;1.80;;;;;;;3.72;100.00;102610.69;10380208;28;20132;-82
2021/04/12 07:13:40;;;;;;;6.30;1.70;;;;;;;3.90;100.00;102616.56;10391204;28;20556;-82
2021/04/12 07:18:41;;;;;;;5.25;1.25;;;;;;;4.01;100.00;102607.44;10387113;28;20038;-80
2021/04/12 07:23:53;;;;;;;7.13;1.90;;;;;;;4.21;98.45;102612.75;10391127;28;20037;-80
2021/04/12 07:29:25;;;;;;;6.28;1.67;;;;;;;4.20;95.51;102565.63;10391390;28;20049;-81
2021/04/12 07:34:31;;;;;;;3.95;1.88;;;;;;;4.63;96.36;102608.84;10393381;28;20080;-80
2021/04/12 07:39:51;;;;;;;7.03;1.25;;;;;;;4.93;94.16;102617.78;10397889;28;20956;-82
2021/04/12 07:44:57;;;;;;;7.20;1.83;;;;;;;5.07;92.30;102624.13;10384567;28;20520;-80
2021/04/12 07:50:13;;;;;;;4.80;2.08;;;;;;;5.22;94.02;102609.03;10383589;28;20738;-82
2021/04/12 07:55:25;;;;;;;4.80;1.40;;;;;;;7.69;80.02;102570.00;10382175;28;20038;-82
2021/04/12 08:01:03;;;;;;;5.70;1.27;;;;;;;10.82;61.50;102604.63;10382917;28;20410;-82
2021/04/12 08:06:32;;;;;;;8.48;1.08;;;;;;;12.00;54.91;102598.84;10370987;28;20089;-82
2021/04/12 08:12:03;;;;;;;4.72;1.30;;;;;;;12.83;53.53;102612.88;10387563;28;20048;-81
2021/04/12 08:17:22;;;;;;;3.97;1.40;;;;;;;10.29;60.62;102613.72;10391644;28;20025;-82
2021/04/12 08:22:51;;;;;;;6.82;1.60;;;;;;;8.07;70.14;102585.97;10401386;28;20029;-83
2021/04/12 08:28:27;;;;;;;7.38;1.67;;;;;;;7.52;71.04;102641.31;10399723;28;20107;-80
2021/04/12 08:33:52;;;;;;;5.03;1.35;;;;;;;5.77;81.78;102657.97;10383570;28;20041;-81
2021/04/12 08:39:15;;;;;;;4.40;1.50;;;;;;;4.92;90.26;102664.44;10383953;28;20040;-82
2021/04/12 08:44:18;;;;;;;;;;;;;;;4.62;95.00;102668.84;10397508;28;20037;-80
2021/04/12 08:50:09;;;;;;;3.22;1.58;;;;;;;4.36;92.49;102683.38;10390831;28;19917;-81
2021/04/12 08:55:58;;;;;;;3.25;1.50;;;;;;;3.80;91.65;102634.22;10362191;28;20042;-81
2021/04/12 09:01:23;;;;;;;2.97;1.58;;;;;;;4.16;89.89;102709.13;10400974;28;20203;-82
2021/04/12 09:06:54;;;;;;;3.67;1.27;;;;;;;3.79;91.44;102691.47;10392311;28;20116;-81
2021/04/12 09:12:14;;;;;;;4.07;1.60;;;;;;;4.80;94.43;102709.50;10354641;28;20042;-83
2021/04/12 09:17:56;;;;;;;2.58;1.00;;;;;;;8.03;77.46;102715.88;10369177;28;20041;-78
2021/04/12 09:23:21;;;;;;;3.30;0.93;;;;;;;11.03;62.00;102706.78;10360490;28;20057;-82
2021/04/12 09:28:37;;;;;;;2.70;1.00;;;;;;;11.68;57.03;102662.50;10342856;28;20022;-83
2021/04/12 09:34:15;;;;;;;1.75;0.88;;;;;;;11.97;55.51;102707.09;10340387;28;20405;-83
2021/04/12 09:39:34;;;;;;;2.38;0.95;;;;;;;12.12;54.04;102714.72;10359628;28;20084;-79
2021/04/12 09:44:52;;;;;;;1.70;0.95;;;;;;;12.04;56.65;102715.53;10360617;28;20033;-82
2021/04/12 09:50:26;;;;;;;2.10;1.10;;;;;;;12.83;59.17;102705.13;10355004;28;20045;-82
2021/04/12 09:56:03;;;;;;;1.98;0.98;;;;;;;13.40;51.62;102712.72;10356441;28;20044;-81
2021/04/12 10:01:19;;;;;;;1.48;1.00;;;;;;;12.18;56.68;102712.63;10348049;28;20034;-83
2021/04/12 10:06:49;;;;;;;2.83;1.20;;;;;;;11.28;60.48;102708.72;10362627;28;20041;-81
2021/04/12 10:11:51;;;;;;;3.70;1.10;;;;;;;11.14;57.78;102718.91;10295505;28;20073;-82
2021/04/12 10:17:08;;;;;;;3.08;1.80;;;;;;;11.21;58.53;102719.25;10355081;28;20124;-80
2021/04/12 10:22:13;;;;;;;5.15;1.98;;;;;;;10.30;59.04;102663.97;10334198;28;20038;-81
2021/04/12 10:27:19;;;;;;;4.63;2.40;;;;;;;8.96;62.69;102730.34;10360521;28;20040;-82
2021/04/12 10:32:43;;;;;;;8.32;2.22;;;;;;;8.82;65.74;102725.78;10344657;28;20041;-79
2021/04/12 10:37:53;;;;;;;6.03;3.20;;;;;;;8.79;69.13;102730.94;10348904;28;20483;-82
2021/04/12 10:43:11;;;;;;;6.45;2.30;;;;;;;8.87;67.03;102663.63;10360120;28;20056;-82
2021/04/12 10:48:17;;;;;;;3.90;2.00;;;;;;;10.28;63.95;102720.25;10368689;28;20080;-81
2021/04/12 10:53:38;;;;;;;4.20;1.90;;;;;;;10.52;57.78;102647.66;10375718;28;20420;-81
2021/04/12 10:59:12;;;;;;;5.57;1.70;;;;;;;10.98;55.37;102716.69;10346336;28;20030;-81
2021/04/12 11:04:31;;;;;;;6.50;2.20;;;;;;;10.21;58.89;102730.69;10361859;28;20033;-82
2021/04/12 11:09:35;;;;;;;3.95;2.08;;;;;;;9.51;59.66;102704.03;10372754;28;20103;-82
2021/04/12 11:14:48;;;;;;;5.47;2.33;;;;;;;8.85;62.27;102730.56;10396930;28;20045;-83
2021/04/12 11:20:27;;;;;;;7.32;2.72;;;;;;;8.54;66.92;102732.25;10391455;28;20710;-81
2021/04/12 11:25:38;;;;;;;6.30;2.67;;;;;;;9.05;60.90;102674.56;10353304;28;20040;-78
2021/04/12 11:30:52;;;;;;;5.80;2.10;;;;;;;9.95;53.64;102734.03;10377582;28;20033;-80
2021/04/12 11:36:24;;;;;;;5.57;2.10;;;;;;;10.18;51.30;102725.88;10392007;28;20041;-81
2021/04/12 11:41:29;;;;;;;3.65;1.50;;;;;;;10.35;49.46;102753.06;10403466;28;20026;-78
2021/04/12 11:46:36;;;;;;;2.85;1.85;;;;;;;10.28;50.26;102747.25;10383074;28;20040;-82
2021/04/12 11:51:58;;;;;;;7.43;2.38;;;;;;;10.44;51.51;102751.19;10404127;28;20083;-82
2021/04/12 11:57:15;;;;;;;7.97;1.98;;;;;;;10.19;49.23;102759.94;10396212;28;20099;-82
2021/04/12 12:02:51;;;;;;;6.75;2.10;;;;;;;10.27;49.82;102756.47;10361823;28;20486;-81
2021/04/12 12:07:55;;;;;;;2.97;1.50;;;;;;;10.22;48.27;102732.28;10386107;28;20137;-78
2021/04/12 12:13:20;;;;;;;6.60;1.58;;;;;;;10.30;47.98;102772.91;10386055;28;20041;-77
2021/04/12 12:18:27;;;;;;;2.70;1.10;;;;;;;10.53;45.78;102770.94;10406569;28;20038;-77
2021/04/12 12:23:55;;;;;;;3.67;1.25;;;;;;;10.32;44.54;102775.28;10398978;28;20037;-77
2021/04/12 12:29:24;;;;;;;3.80;1.13;;;;;;;10.32;45.76;102757.19;10387590;28;20076;-78
2021/04/12 12:35:06;;;;;;;2.13;1.00;;;;;;;10.56;43.66;102797.38;10393095;28;20064;-79
2021/04/12 12:40:17;;;;;;;3.40;1.30;;;;;;;10.94;45.09;102786.06;10356337;28;20091;-79
2021/04/12 12:45:26;;;;;;;3.25;0.90;;;;;;;10.85;41.31;102782.53;10405958;28;20026;-83
2021/04/12 12:50:34;;;;;;;2.13;1.05;;;;;;;11.00;40.33;102792.91;10393538;28;20443;-78
2021/04/12 12:55:40;;;;;;;2.35;1.38;;;;;;;11.28;43.23;102800.78;10387482;28;20088;-76
2021/04/12 13:00:44;;;;;;;2.53;0.93;;;;;;;10.74;38.25;102770.38;10382865;28;20397;-76
2021/04/12 13:05:47;;;;;;;4.78;1.33;;;;;;;11.28;41.58;102789.94;10384754;28;20502;-76
2021/04/12 13:10:49;;;;;;;2.78;1.20;;;;;;;11.49;42.04;102794.75;10387228;28;20482;-76
2021/04/12 13:15:54;;;;;;;2.60;1.25;;;;;;;11.90;39.18;102804.34;10405338;28;20710;-76
2021/04/12 13:21:24;;;;;;;5.75;1.20;;;;;;;11.48;41.86;102806.72;10398398;28;20125;-78
2021/04/12 13:26:40;;;;;;;2.20;0.90;;;;;;;11.10;41.27;102815.38;10396760;28;20057;-79
2021/04/12 13:31:48;;;;;;;1.20;0.85;;;;;;;10.58;37.83;102751.88;10396091;28;20041;-78
2021/04/12 13:36:54;;;;;;;3.95;1.00;;;;;;;10.96;39.34;102821.72;10401863;28;20192;-80
2021/04/12 13:41:55;;;;;;;4.82;1.60;;;;;;;10.41;45.08;102778.84;10399852;28;20541;-80
2021/04/12 13:47:05;;;;;;;2.90;1.50;;;;;;;11.10;45.51;102820.78;10401092;28;20100;-80
2021/04/12 13:52:11;;;;;;;3.28;1.50;;;;;;;10.98;43.52;102770.81;10397712;28;20049;-84
2021/04/12 13:57:27;;;;;;;3.08;1.50;;;;;;;11.04;41.99;102832.88;10392457;28;20065;-81
2021/04/12 14:02:38;;;;;;;2.38;0.95;;;;;;;11.10;40.03;102820.78;10386895;28;20033;-83
2021/04/12 14:07:48;;;;;;;2.45;1.08;;;;;;;10.94;40.77;102780.66;10390912;28;20041;-85
2021/04/12 14:13:03;;;;;;;2.22;1.48;;;;;;;10.64;43.10;102813.94;10385468;28;20114;-82
2021/04/12 14:18:06;;;;;;;5.82;1.73;;;;;;;10.42;45.59;102764.22;10408067;28;20163;-83
2021/04/12 14:23:13;;;;;;;;;;;;;;;10.43;44.09;102830.69;10382536;28;20029;-81
2021/04/12 14:28:20;;;;;;;3.47;1.70;;;;;;;10.66;44.91;102784.69;10401616;28;19921;-83
2021/04/12 14:33:40;;;;;;;3.67;1.70;;;;;;;10.29;46.00;102784.03;10408320;28;20399;-84
2021/04/12 14:38:43;;;;;;;2.55;1.52;;;;;;;10.46;46.33;102802.25;10390905;28;20048;-81
2021/04/12 14:43:54;;;;;;;5.00;1.77;;;;;;;10.14;47.65;102823.81;10385723;28;20060;-83
2021/04/12 14:48:58;;;;;;;3.05;1.60;;;;;;;10.20;46.38;102848.00;10386050;28;20124;-84
2021/04/12 14:54:12;;;;;;;4.88;2.05;;;;;;;10.37;47.04;102826.50;10390635;28;20124;-84
2021/04/12 14:59:14;;;;;;;4.10;1.88;;;;;;;9.93;47.68;102753.25;10389633;28;20040;-84
2021/04/12 15:04:18;;;;;;;4.13;3.05;;;;;;;10.10;47.06;102849.06;10398367;28;20041;-80
2021/04/12 15:09:25;;;;;;;3.17;2.40;;;;;;;10.06;48.77;102842.66;10376546;28;20132;-82
2021/04/12 15:14:36;;;;;;;7.65;3.63;;;;;;;9.91;48.98;102851.91;10382311;28;20048;-81
2021/04/12 15:19:42;;;;;;;6.38;3.13;;;;;;;9.75;47.83;102829.84;10398505;28;20045;-80
2021/04/12 15:24:45;;;;;;;7.05;2.63;;;;;;;9.65;49.16;102817.38;10410215;28;20052;-82
2021/04/12 15:29:50;;;;;;;4.13;2.40;;;;;;;9.82;47.37;102788.91;10392453;28;20034;-78
2021/04/12 15:34:53;;;;;;;4.07;2.22;;;;;;;10.14;45.12;102829.22;10403503;28;20105;-85
2021/04/12 15:40:03;;;;;;;6.38;2.40;;;;;;;10.03;45.69;102854.88;10422060;28;20025;-76
2021/04/12 15:45:19;;;;;;;6.35;1.88;;;;;;;9.78;42.84;102825.75;10393535;28;20082;-78
2021/04/12 15:50:25;;;;;;;4.40;2.08;;;;;;;9.94;43.96;102862.09;10382327;28;20793;-79
2021/04/12 15:55:32;;;;;;;3.70;1.60;;;;;;;10.21;40.28;102860.44;10376239;28;20033;-77
2021/04/12 16:00:36;;;;;;;5.55;2.05;;;;;;;9.98;41.48;102857.69;10389167;28;20410;-79
2021/04/12 16:05:42;;;;;;;1.85;1.33;;;;;;;9.56;40.92;102867.00;10387882;28;20433;-80
2021/04/12 16:10:52;;;;;;;3.47;1.90;;;;;;;9.39;43.16;102862.22;10366620;28;20073;-77
2021/04/12 16:16:03;;;;;;;13.25;5.47;;;;;;;9.37;43.47;102886.03;10396394;28;20049;-80
2021/04/12 16:21:09;;;;;;;6.95;2.40;;;;;;;9.31;43.90;102880.72;10388288;28;20033;-78
2021/04/12 16:26:27;;;;;;;4.28;1.60;;;;;;;9.69;43.88;102875.09;10397096;28;20073;-77
2021/04/12 16:31:32;;;;;;;3.85;1.52;;;;;;;9.19;43.00;102829.13;10385170;28;20089;-79
2021/04/12 16:36:41;;;;;;;4.82;2.03;;;;;;;9.72;44.03;102887.97;10389492;28;20056;-78
2021/04/12 16:41:54;;;;;;;3.72;1.85;;;;;;;9.72;44.03;102898.78;10385197;28;20125;-79
2021/04/12 16:47:00;;;;;;;3.35;1.88;;;;;;;9.59;44.60;102888.00;10396825;28;20041;-78
2021/04/12 16:52:06;;;;;;;4.25;1.88;;;;;;;9.60;45.40;102885.00;10386554;28;20099;-79
2021/04/12 16:57:14;;;;;;;4.43;1.85;;;;;;;9.45;42.23;102861.81;10402031;28;20091;-84
2021/04/12 17:02:29;;;;;;;3.55;1.40;;;;;;;9.36;42.32;102885.22;10373533;28;20069;-79
2021/04/12 17:12:35;;;;;;;3.05;1.52;;;;;;;8.44;43.85;102871.50;10348424;28;20096;-79
2021/04/12 17:17:44;;;;;;;2.40;1.45;;;;;;;8.27;43.20;102838.84;10357475;28;20026;-78
2021/04/12 17:22:54;;;;;;;3.72;1.52;;;;;;;9.01;43.18;102900.19;10359744;28;20044;-83
2021/04/12 17:28:21;;;;;;;3.65;1.40;;;;;;;8.74;44.96;102901.72;10343016;28;20030;-79
2021/04/12 17:33:33;;;;;;;2.95;1.02;;;;;;;8.52;42.87;102909.66;10304088;28;20050;-76
2021/04/12 17:38:47;;;;;;;3.97;1.35;;;;;;;8.13;44.49;102899.97;10359025;28;20038;-77
2021/04/12 17:44:00;;;;;;;3.50;1.50;;;;;;;8.14;46.32;102925.81;10356855;28;20041;-78
2021/04/12 17:49:13;;;;;;;2.88;1.30;;;;;;;7.73;44.90;102904.81;10342470;28;20487;-82
2021/04/12 17:54:22;;;;;;;2.83;1.48;;;;;;;7.67;47.55;102916.75;10346827;28;20087;-80
2021/04/12 17:59:41;;;;;;;3.45;1.60;;;;;;;7.40;47.62;102934.25;10375219;28;20034;-83
2021/04/12 18:04:49;;;;;;;3.33;1.50;;;;;;;6.85;49.29;102880.78;10353199;28;20034;-81
2021/04/12 18:10:04;;;;;;;3.75;1.70;;;;;;;7.10;50.82;102941.59;10364396;28;20045;-84
2021/04/12 18:15:14;;;;;;;4.47;1.88;;;;;;;6.94;52.01;102937.44;10396069;28;20391;-79
2021/04/12 18:20:27;;;;;;;6.57;2.30;;;;;;;6.76;51.93;102947.78;10400225;28;20179;-81
2021/04/12 18:25:52;;;;;;;6.07;2.30;;;;;;;6.64;53.54;102950.03;10392796;28;20441;-76
2021/04/12 18:31:00;;;;;;;5.55;2.47;;;;;;;6.25;55.30;102910.53;10385027;28;20104;-77
2021/04/12 18:36:09;;;;;;;6.05;2.13;;;;;;;6.46;55.85;102964.91;10382023;28;20135;-77
2021/04/12 18:41:16;;;;;;;5.43;2.53;;;;;;;6.32;56.81;102959.34;10395119;28;20041;-75
2021/04/12 18:46:54;;;;;;;5.80;2.58;;;;;;;6.24;57.85;102978.75;10397742;28;20486;-78
2021/04/12 18:52:03;;;;;;;4.90;2.30;;;;;;;5.72;58.72;102912.94;10402663;28;20120;-78
2021/04/12 18:57:22;;;;;;;7.63;2.72;;;;;;;5.05;58.75;102829.22;10397158;28;20041;-78
2021/04/12 19:02:26;;;;;;;10.90;4.38;;;;;;;5.58;59.82;102933.38;10384237;28;20048;-78
2021/04/12 19:07:36;;;;;;;9.85;4.28;;;;;;;5.84;60.66;103002.00;10385931;28;20033;-77
2021/04/12 19:13:02;;;;;;;4.88;2.80;;;;;;;5.70;61.25;102990.22;10345507;28;20064;-77
2021/04/12 19:18:26;;;;;;;7.88;3.35;;;;;;;5.66;61.74;103010.63;10337359;28;20039;-78
2021/04/12 19:23:54;;;;;;;8.10;3.92;;;;;;;5.54;63.64;102996.72;10344337;28;20052;-78
2021/04/12 19:29:24;;;;;;;12.25;5.47;;;;;;;5.36;63.67;102990.84;10345950;28;20158;-77
2021/04/12 19:34:39;;;;;;;12.60;4.80;;;;;;;5.43;63.95;103023.56;10319053;28;20116;-77
2021/04/12 19:40:00;;;;;;;9.02;3.78;;;;;;;5.32;64.34;103027.31;10324369;28;20034;-79
2021/04/12 19:45:22;;;;;;;7.35;3.53;;;;;;;5.27;64.47;103024.66;10358262;28;20044;-80
2021/04/12 19:50:28;;;;;;;5.90;3.30;;;;;;;4.89;64.27;102981.19;10347647;28;20037;-78
2021/04/12 19:55:45;;;;;;;5.35;2.80;;;;;;;5.12;64.37;103027.31;10339030;28;20292;-79
2021/04/12 20:00:52;;;;;;;5.95;2.92;;;;;;;4.86;63.90;102987.09;10339844;28;20022;-82
2021/04/12 20:06:14;;;;;;;6.70;2.90;;;;;;;4.98;63.51;103001.03;10344813;28;20143;-84
2021/04/12 20:11:41;;;;;;;8.35;2.47;;;;;;;5.16;63.69;103023.03;10372788;28;20543;-83
2021/04/12 20:16:59;;;;;;;7.50;3.15;;;;;;;4.86;63.68;102987.09;10380272;28;20050;-80
2021/04/12 20:22:06;;;;;;;7.65;4.35;;;;;;;4.99;63.69;103018.75;10385074;28;20032;-78
2021/04/12 20:27:19;;;;;;;8.52;3.40;;;;;;;5.06;63.93;103030.00;10389602;28;20049;-77
2021/04/12 20:32:24;;;;;;;9.23;4.32;;;;;;;5.04;64.29;103042.88;10397328;28;20065;-81
2021/04/12 20:37:52;;;;;;;6.43;3.38;;;;;;;4.98;64.13;103043.91;10389064;28;20454;-82
2021/04/12 20:42:58;;;;;;;6.60;3.25;;;;;;;4.94;64.06;103042.88;10392217;28;20037;-78
2021/04/12 20:48:27;;;;;;;5.10;2.85;;;;;;;4.92;64.52;103050.38;10393394;28;20125;-80
2021/04/12 20:53:51;;;;;;;5.50;3.05;;;;;;;4.96;65.20;103046.09;10389364;28;20517;-80
2021/04/12 20:58:51;;;;;;;7.85;3.20;;;;;;;4.92;64.97;103049.56;10402346;28;20050;-85
2021/04/12 21:04:07;;;;;;;8.38;3.40;;;;;;;4.94;65.42;103058.94;10398867;28;20458;-81
2021/04/12 21:09:16;;;;;;;8.70;3.90;;;;;;;4.94;65.40;103052.75;10389115;28;20053;-83
2021/04/12 21:14:20;;;;;;;6.47;3.25;;;;;;;4.95;65.67;103060.53;10394913;28;20038;-83
2021/04/12 21:19:26;;;;;;;7.40;3.65;;;;;;;4.78;65.69;103022.47;10395175;28;20084;-81
2021/04/12 21:24:30;;;;;;;6.57;4.00;;;;;;;4.75;65.83;103001.56;10398503;28;20050;-81
2021/04/12 21:29:41;;;;;;;7.53;4.50;;;;;;;5.15;65.81;103058.94;10383290;28;20030;-83
2021/04/12 21:35:05;;;;;;;5.97;3.22;;;;;;;5.21;65.72;103063.25;10402121;28;20376;-80
2021/04/12 21:40:31;;;;;;;9.63;3.70;;;;;;;5.17;65.54;103051.44;10402648;28;20132;-81
2021/04/12 21:46:09;;;;;;;7.90;3.30;;;;;;;4.91;66.07;103027.28;10393858;28;20546;-82
2021/04/12 21:51:19;;;;;;;6.88;3.35;;;;;;;5.11;66.68;103069.41;10377363;28;20045;-81
2021/04/12 21:56:34;;;;;;;6.22;3.53;;;;;;;4.64;67.93;103006.91;10388668;28;20080;-80
2021/04/12 22:01:52;;;;;;;7.60;3.88;;;;;;;4.88;69.94;103065.38;10409109;28;20035;-77
2021/04/12 22:07:21;;;;;;;6.90;3.38;;;;;;;4.52;70.76;103014.38;10404371;28;20154;-77
2021/04/12 22:12:30;;;;;;;7.57;3.40;;;;;;;4.81;72.34;103064.81;10304388;28;20646;-80
2021/04/12 22:17:57;;;;;;;8.73;3.97;;;;;;;4.80;73.42;103090.00;10350983;28;20050;-80
2021/04/12 22:23:23;;;;;;;10.00;3.92;;;;;;;4.64;73.57;103071.19;10366546;28;20080;-79
2021/04/12 22:28:34;;;;;;;11.07;4.18;;;;;;;4.60;74.47;103077.34;10342484;28;20100;-81
2021/04/12 22:33:49;;;;;;;6.07;3.35;;;;;;;4.36;75.11;103051.03;10358658;28;20049;-80
2021/04/12 22:40:14;;;;;;;10.82;3.63;;;;;;;4.54;76.18;103100.66;10358937;28;20486;-78
2021/04/12 22:44:38;;;;;;;8.50;3.40;;;;;;;4.49;77.33;103100.59;10345734;28;20038;-80
2021/04/12 22:49:47;;;;;;;9.73;3.50;;;;;;;4.44;78.11;103111.31;10337092;28;20646;-79
2021/04/12 22:55:16;;;;;;;8.73;3.45;;;;;;;4.39;78.27;103105.94;10348458;28;20030;-81
2021/04/12 23:00:43;;;;;;;13.25;3.10;;;;;;;4.30;78.95;103108.28;10357060;28;20033;-78
2021/04/12 23:05:46;;;;;;;8.80;2.10;;;;;;;4.18;78.98;103100.47;10355696;28;20042;-80
2021/04/12 23:10:57;;;;;;;6.07;2.25;;;;;;;4.17;79.40;103106.91;10364301;28;20049;-80
2021/04/12 23:16:35;;;;;;;7.63;2.88;;;;;;;4.15;79.83;103111.69;10393568;28;20033;-80
2021/04/12 23:21:38;;;;;;;8.23;2.20;;;;;;;3.78;81.01;103085.78;10323939;28;20056;-79
2021/04/12 23:26:42;;;;;;;7.20;2.22;;;;;;;4.00;81.10;103119.66;10392947;28;20859;-77
2021/04/12 23:31:43;;;;;;;6.38;2.25;;;;;;;3.74;81.74;103084.69;10393745;28;20030;-80
2021/04/12 23:36:55;;;;;;;9.25;2.13;;;;;;;3.52;83.00;103059.94;10412100;28;20136;-80
2021/04/12 23:42:14;;;;;;;8.98;2.22;;;;;;;3.79;83.60;103119.50;10405176;28;20037;-81
2021/04/12 23:47:23;;;;;;;6.78;2.00;;;;;;;3.77;84.71;103116.28;10397982;28;20029;-80
2021/04/12 23:52:46;;;;;;;8.30;1.67;;;;;;;3.48;84.48;103074.88;10391372;28;20092;-80
2021/04/12 23:57:47;;;;;;;6.43;1.60;;;;;;;3.77;85.04;103131.53;10389056;28;20128;-81
